sensor_id;sensor_type;location;lat;lon;timestamp;P1;durP1;ratioP1;P2;durP2;ratioP2
15925;SDS011;8062;53.882;10.642;2023-05-13T00:00:32;0.30;;;0.30;;
15925;SDS011;8062;53.882;10.642;2023-05-13T00:01:51;0.20;;;0.20;;
15925;SDS011;8062;53.882;10.642;2023-05-13T00:03:11;0.40;;;0.40;;
15925;SDS011;8062;53.882;10.642;2023-05-13T00:04:31;0.33;;;0.33;;
15925;SDS011;8062;53.882;10.642;2023-05-13T00:05:50;0.40;;;0.40;;
15925;SDS011;8062;53.882;10.642;2023-05-13T00:07:09;0.40;;;0.40;;
15925;SDS011;8062;53.882;10.642;2023-05-13T00:08:29;0.40;;;0.40;;
15925;SDS011;8062;53.882;10.642;2023-05-13T00:09:48;0.23;;;0.23;;
15925;SDS011;8062;53.882;10.642;2023-05-13T00:11:07;0.40;;;0.40;;
15925;SDS011;8062;53.882;10.642;2023-05-13T00:12:27;0.30;;;0.30;;
15925;SDS011;8062;53.882;10.642;2023-05-13T00:13:49;0.30;;;0.30;;
15925;SDS011;8062;53.882;10.642;2023-05-13T00:15:09;0.40;;;0.40;;
15925;SDS011;8062;53.882;10.642;2023-05-13T00:16:28;0.40;;;0.40;;
15925;SDS011;8062;53.882;10.642;2023-05-13T00:17:48;0.27;;;0.27;;
15925;SDS011;8062;53.882;10.642;2023-05-13T00:19:07;0.27;;;0.27;;
15925;SDS011;8062;53.882;10.642;2023-05-13T00:20:27;0.27;;;0.27;;
15925;SDS011;8062;53.882;10.642;2023-05-13T00:21:46;0.37;;;0.37;;
15925;SDS011;8062;53.882;10.642;2023-05-13T00:23:05;0.30;;;0.30;;
15925;SDS011;8062;53.882;10.642;2023-05-13T00:24:25;0.30;;;0.30;;
15925;SDS011;8062;53.882;10.642;2023-05-13T00:25:45;0.30;;;0.30;;
15925;SDS011;8062;53.882;10.642;2023-05-13T00:27:05;0.40;;;0.40;;
15925;SDS011;8062;53.882;10.642;2023-05-13T00:28:24;0.30;;;0.30;;
15925;SDS011;8062;53.882;10.642;2023-05-13T00:29:44;0.30;;;0.30;;
15925;SDS011;8062;53.882;10.642;2023-05-13T00:31:03;0.30;;;0.30;;
15925;SDS011;8062;53.882;10.642;2023-05-13T00:32:23;0.30;;;0.30;;
15925;SDS011;8062;53.882;10.642;2023-05-13T00:33:42;0.40;;;0.40;;
15925;SDS011;8062;53.882;10.642;2023-05-13T00:35:02;0.40;;;0.40;;
15925;SDS011;8062;53.882;10.642;2023-05-13T00:36:22;0.30;;;0.30;;
15925;SDS011;8062;53.882;10.642;2023-05-13T00:37:42;0.30;;;0.30;;
15925;SDS011;8062;53.882;10.642;2023-05-13T00:39:01;0.20;;;0.20;;
15925;SDS011;8062;53.882;10.642;2023-05-13T00:40:22;0.30;;;0.30;;
15925;SDS011;8062;53.882;10.642;2023-05-13T00:41:42;0.30;;;0.30;;
15925;SDS011;8062;53.882;10.642;2023-05-13T00:43:02;0.33;;;0.33;;
15925;SDS011;8062;53.882;10.642;2023-05-13T00:44:21;0.30;;;0.30;;
15925;SDS011;8062;53.882;10.642;2023-05-13T00:45:41;0.30;;;0.30;;
15925;SDS011;8062;53.882;10.642;2023-05-13T00:47:00;0.30;;;0.30;;
15925;SDS011;8062;53.882;10.642;2023-05-13T00:48:20;0.30;;;0.30;;
15925;SDS011;8062;53.882;10.642;2023-05-13T00:49:40;0.30;;;0.30;;
15925;SDS011;8062;53.882;10.642;2023-05-13T00:51:00;0.30;;;0.30;;
15925;SDS011;8062;53.882;10.642;2023-05-13T00:52:20;0.40;;;0.40;;
15925;SDS011;8062;53.882;10.642;2023-05-13T00:53:39;0.37;;;0.37;;
15925;SDS011;8062;53.882;10.642;2023-05-13T00:55:01;0.30;;;0.30;;
15925;SDS011;8062;53.882;10.642;2023-05-13T00:56:22;0.40;;;0.40;;
15925;SDS011;8062;53.882;10.642;2023-05-13T00:57:43;0.30;;;0.30;;
15925;SDS011;8062;53.882;10.642;2023-05-13T00:59:02;0.30;;;0.30;;
15925;SDS011;8062;53.882;10.642;2023-05-13T01:00:21;0.30;;;0.30;;
15925;SDS011;8062;53.882;10.642;2023-05-13T01:03:31;0.30;;;0.30;;
15925;SDS011;8062;53.882;10.642;2023-05-13T01:06:38;0.33;;;0.33;;
15925;SDS011;8062;53.882;10.642;2023-05-13T01:10:04;0.20;;;0.20;;
15925;SDS011;8062;53.882;10.642;2023-05-13T01:11:45;0.30;;;0.30;;
15925;SDS011;8062;53.882;10.642;2023-05-13T01:13:11;0.30;;;0.30;;
15925;SDS011;8062;53.882;10.642;2023-05-13T01:14:34;0.40;;;0.40;;
15925;SDS011;8062;53.882;10.642;2023-05-13T01:16:02;0.40;;;0.40;;
15925;SDS011;8062;53.882;10.642;2023-05-13T01:17:30;0.40;;;0.40;;
15925;SDS011;8062;53.882;10.642;2023-05-13T01:18:55;0.30;;;0.30;;
15925;SDS011;8062;53.882;10.642;2023-05-13T01:20:21;0.30;;;0.30;;
15925;SDS011;8062;53.882;10.642;2023-05-13T01:21:41;0.20;;;0.20;;
15925;SDS011;8062;53.882;10.642;2023-05-13T01:23:10;0.30;;;0.30;;
15925;SDS011;8062;53.882;10.642;2023-05-13T01:24:31;0.30;;;0.30;;
15925;SDS011;8062;53.882;10.642;2023-05-13T01:25:50;0.27;;;0.27;;
15925;SDS011;8062;53.882;10.642;2023-05-13T01:27:10;0.20;;;0.20;;
15925;SDS011;8062;53.882;10.642;2023-05-13T01:28:30;0.30;;;0.30;;
15925;SDS011;8062;53.882;10.642;2023-05-13T01:29:49;0.30;;;0.30;;
15925;SDS011;8062;53.882;10.642;2023-05-13T01:31:14;0.30;;;0.30;;
15925;SDS011;8062;53.882;10.642;2023-05-13T01:32:34;0.30;;;0.30;;
15925;SDS011;8062;53.882;10.642;2023-05-13T01:33:54;0.30;;;0.30;;
15925;SDS011;8062;53.882;10.642;2023-05-13T01:35:15;0.40;;;0.40;;
15925;SDS011;8062;53.882;10.642;2023-05-13T01:36:38;0.30;;;0.30;;
15925;SDS011;8062;53.882;10.642;2023-05-13T01:37:58;0.30;;;0.30;;
15925;SDS011;8062;53.882;10.642;2023-05-13T01:39:19;0.40;;;0.40;;
15925;SDS011;8062;53.882;10.642;2023-05-13T01:40:42;0.40;;;0.40;;
15925;SDS011;8062;53.882;10.642;2023-05-13T01:42:02;0.27;;;0.27;;
15925;SDS011;8062;53.882;10.642;2023-05-13T01:43:22;0.30;;;0.30;;
15925;SDS011;8062;53.882;10.642;2023-05-13T01:44:42;0.30;;;0.30;;
15925;SDS011;8062;53.882;10.642;2023-05-13T01:46:02;0.33;;;0.33;;
15925;SDS011;8062;53.882;10.642;2023-05-13T01:47:21;0.30;;;0.30;;
15925;SDS011;8062;53.882;10.642;2023-05-13T01:48:41;0.30;;;0.30;;
15925;SDS011;8062;53.882;10.642;2023-05-13T01:50:00;0.30;;;0.30;;
15925;SDS011;8062;53.882;10.642;2023-05-13T01:51:20;0.30;;;0.30;;
15925;SDS011;8062;53.882;10.642;2023-05-13T01:52:40;0.30;;;0.30;;
15925;SDS011;8062;53.882;10.642;2023-05-13T01:53:59;0.30;;;0.30;;
15925;SDS011;8062;53.882;10.642;2023-05-13T01:55:19;0.40;;;0.40;;
15925;SDS011;8062;53.882;10.642;2023-05-13T01:56:40;0.33;;;0.33;;
15925;SDS011;8062;53.882;10.642;2023-05-13T01:58:00;0.20;;;0.20;;
15925;SDS011;8062;53.882;10.642;2023-05-13T01:59:21;0.40;;;0.40;;
15925;SDS011;8062;53.882;10.642;2023-05-13T02:00:40;0.30;;;0.30;;
15925;SDS011;8062;53.882;10.642;2023-05-13T02:02:00;0.40;;;0.40;;
15925;SDS011;8062;53.882;10.642;2023-05-13T02:03:19;0.40;;;0.40;;
15925;SDS011;8062;53.882;10.642;2023-05-13T02:04:39;0.30;;;0.30;;
15925;SDS011;8062;53.882;10.642;2023-05-13T02:05:59;0.20;;;0.20;;
15925;SDS011;8062;53.882;10.642;2023-05-13T02:07:18;0.30;;;0.30;;
15925;SDS011;8062;53.882;10.642;2023-05-13T02:08:39;0.30;;;0.30;;
15925;SDS011;8062;53.882;10.642;2023-05-13T02:09:59;0.40;;;0.40;;
15925;SDS011;8062;53.882;10.642;2023-05-13T02:11:18;0.27;;;0.27;;
15925;SDS011;8062;53.882;10.642;2023-05-13T02:12:38;0.30;;;0.30;;
15925;SDS011;8062;53.882;10.642;2023-05-13T02:13:58;0.30;;;0.30;;
15925;SDS011;8062;53.882;10.642;2023-05-13T02:15:17;0.30;;;0.30;;
15925;SDS011;8062;53.882;10.642;2023-05-13T02:16:37;0.30;;;0.30;;
15925;SDS011;8062;53.882;10.642;2023-05-13T02:17:58;0.30;;;0.30;;
15925;SDS011;8062;53.882;10.642;2023-05-13T02:19:18;0.43;;;0.43;;
15925;SDS011;8062;53.882;10.642;2023-05-13T02:20:37;0.40;;;0.40;;
15925;SDS011;8062;53.882;10.642;2023-05-13T02:21:57;0.30;;;0.30;;
15925;SDS011;8062;53.882;10.642;2023-05-13T02:23:16;0.30;;;0.30;;
15925;SDS011;8062;53.882;10.642;2023-05-13T02:24:36;0.30;;;0.30;;
15925;SDS011;8062;53.882;10.642;2023-05-13T02:26:00;0.30;;;0.30;;
15925;SDS011;8062;53.882;10.642;2023-05-13T02:27:20;0.30;;;0.30;;
15925;SDS011;8062;53.882;10.642;2023-05-13T02:28:41;0.40;;;0.40;;
15925;SDS011;8062;53.882;10.642;2023-05-13T02:30:01;0.40;;;0.40;;
15925;SDS011;8062;53.882;10.642;2023-05-13T02:31:21;0.30;;;0.30;;
15925;SDS011;8062;53.882;10.642;2023-05-13T02:32:40;0.40;;;0.40;;
15925;SDS011;8062;53.882;10.642;2023-05-13T02:34:02;0.40;;;0.40;;
15925;SDS011;8062;53.882;10.642;2023-05-13T02:35:22;0.30;;;0.30;;
15925;SDS011;8062;53.882;10.642;2023-05-13T02:36:43;0.30;;;0.30;;
15925;SDS011;8062;53.882;10.642;2023-05-13T02:38:03;0.30;;;0.30;;
15925;SDS011;8062;53.882;10.642;2023-05-13T02:39:23;0.40;;;0.40;;
15925;SDS011;8062;53.882;10.642;2023-05-13T02:40:43;0.40;;;0.40;;
15925;SDS011;8062;53.882;10.642;2023-05-13T02:42:02;0.30;;;0.30;;
15925;SDS011;8062;53.882;10.642;2023-05-13T02:43:24;0.30;;;0.30;;
15925;SDS011;8062;53.882;10.642;2023-05-13T02:44:49;0.30;;;0.30;;
15925;SDS011;8062;53.882;10.642;2023-05-13T02:46:09;0.40;;;0.40;;
15925;SDS011;8062;53.882;10.642;2023-05-13T02:47:28;0.40;;;0.40;;
15925;SDS011;8062;53.882;10.642;2023-05-13T02:48:51;0.30;;;0.30;;
15925;SDS011;8062;53.882;10.642;2023-05-13T02:50:11;0.30;;;0.30;;
15925;SDS011;8062;53.882;10.642;2023-05-13T02:51:32;0.30;;;0.30;;
15925;SDS011;8062;53.882;10.642;2023-05-13T02:52:51;0.43;;;0.43;;
15925;SDS011;8062;53.882;10.642;2023-05-13T02:54:11;0.30;;;0.30;;
15925;SDS011;8062;53.882;10.642;2023-05-13T02:55:31;0.40;;;0.40;;
15925;SDS011;8062;53.882;10.642;2023-05-13T02:56:51;0.30;;;0.30;;
15925;SDS011;8062;53.882;10.642;2023-05-13T02:58:11;0.40;;;0.40;;
15925;SDS011;8062;53.882;10.642;2023-05-13T02:59:31;0.40;;;0.40;;
15925;SDS011;8062;53.882;10.642;2023-05-13T03:00:51;0.30;;;0.30;;
15925;SDS011;8062;53.882;10.642;2023-05-13T03:02:10;0.30;;;0.30;;
15925;SDS011;8062;53.882;10.642;2023-05-13T03:03:30;0.40;;;0.40;;
15925;SDS011;8062;53.882;10.642;2023-05-13T03:04:50;0.40;;;0.40;;
15925;SDS011;8062;53.882;10.642;2023-05-13T03:06:09;0.50;;;0.50;;
15925;SDS011;8062;53.882;10.642;2023-05-13T03:07:29;0.40;;;0.40;;
15925;SDS011;8062;53.882;10.642;2023-05-13T03:08:50;0.40;;;0.40;;
15925;SDS011;8062;53.882;10.642;2023-05-13T03:10:10;0.20;;;0.20;;
15925;SDS011;8062;53.882;10.642;2023-05-13T03:11:30;0.33;;;0.33;;
15925;SDS011;8062;53.882;10.642;2023-05-13T03:12:50;0.30;;;0.30;;
15925;SDS011;8062;53.882;10.642;2023-05-13T03:14:11;0.33;;;0.33;;
15925;SDS011;8062;53.882;10.642;2023-05-13T03:15:30;0.40;;;0.40;;
15925;SDS011;8062;53.882;10.642;2023-05-13T03:16:50;0.40;;;0.40;;
15925;SDS011;8062;53.882;10.642;2023-05-13T03:18:10;0.47;;;0.47;;
15925;SDS011;8062;53.882;10.642;2023-05-13T03:19:29;0.43;;;0.43;;
15925;SDS011;8062;53.882;10.642;2023-05-13T03:20:50;0.40;;;0.40;;
15925;SDS011;8062;53.882;10.642;2023-05-13T03:22:10;0.30;;;0.30;;
15925;SDS011;8062;53.882;10.642;2023-05-13T03:23:31;0.50;;;0.50;;
15925;SDS011;8062;53.882;10.642;2023-05-13T03:24:51;0.30;;;0.30;;
15925;SDS011;8062;53.882;10.642;2023-05-13T03:26:13;0.40;;;0.40;;
15925;SDS011;8062;53.882;10.642;2023-05-13T03:27:32;0.37;;;0.37;;
15925;SDS011;8062;53.882;10.642;2023-05-13T03:28:52;0.33;;;0.33;;
15925;SDS011;8062;53.882;10.642;2023-05-13T03:30:12;0.47;;;0.47;;
15925;SDS011;8062;53.882;10.642;2023-05-13T03:31:39;0.30;;;0.30;;
15925;SDS011;8062;53.882;10.642;2023-05-13T03:32:59;0.40;;;0.40;;
15925;SDS011;8062;53.882;10.642;2023-05-13T03:34:18;0.33;;;0.33;;
15925;SDS011;8062;53.882;10.642;2023-05-13T03:35:38;0.30;;;0.30;;
15925;SDS011;8062;53.882;10.642;2023-05-13T03:36:58;0.30;;;0.30;;
15925;SDS011;8062;53.882;10.642;2023-05-13T03:38:20;0.30;;;0.30;;
15925;SDS011;8062;53.882;10.642;2023-05-13T03:39:41;0.30;;;0.30;;
15925;SDS011;8062;53.882;10.642;2023-05-13T03:41:01;0.33;;;0.33;;
15925;SDS011;8062;53.882;10.642;2023-05-13T03:42:21;0.30;;;0.30;;
15925;SDS011;8062;53.882;10.642;2023-05-13T03:43:42;0.33;;;0.33;;
15925;SDS011;8062;53.882;10.642;2023-05-13T03:45:04;0.40;;;0.40;;
15925;SDS011;8062;53.882;10.642;2023-05-13T03:46:25;0.30;;;0.30;;
15925;SDS011;8062;53.882;10.642;2023-05-13T03:47:46;0.40;;;0.40;;
15925;SDS011;8062;53.882;10.642;2023-05-13T03:49:08;0.37;;;0.37;;
15925;SDS011;8062;53.882;10.642;2023-05-13T03:50:28;0.30;;;0.30;;
15925;SDS011;8062;53.882;10.642;2023-05-13T03:51:48;0.30;;;0.30;;
15925;SDS011;8062;53.882;10.642;2023-05-13T03:53:08;0.30;;;0.30;;
15925;SDS011;8062;53.882;10.642;2023-05-13T03:54:29;0.33;;;0.33;;
15925;SDS011;8062;53.882;10.642;2023-05-13T03:55:49;0.30;;;0.30;;
15925;SDS011;8062;53.882;10.642;2023-05-13T03:57:09;0.30;;;0.30;;
15925;SDS011;8062;53.882;10.642;2023-05-13T03:58:28;0.40;;;0.40;;
15925;SDS011;8062;53.882;10.642;2023-05-13T03:59:50;0.30;;;0.30;;
15925;SDS011;8062;53.882;10.642;2023-05-13T04:01:09;0.30;;;0.30;;
15925;SDS011;8062;53.882;10.642;2023-05-13T04:02:29;0.40;;;0.40;;
15925;SDS011;8062;53.882;10.642;2023-05-13T04:03:49;0.30;;;0.30;;
15925;SDS011;8062;53.882;10.642;2023-05-13T04:05:08;0.30;;;0.30;;
15925;SDS011;8062;53.882;10.642;2023-05-13T04:06:29;0.30;;;0.30;;
15925;SDS011;8062;53.882;10.642;2023-05-13T04:07:49;0.30;;;0.30;;
15925;SDS011;8062;53.882;10.642;2023-05-13T04:09:08;0.40;;;0.40;;
15925;SDS011;8062;53.882;10.642;2023-05-13T04:10:28;0.30;;;0.30;;
15925;SDS011;8062;53.882;10.642;2023-05-13T04:11:48;0.30;;;0.30;;
15925;SDS011;8062;53.882;10.642;2023-05-13T04:13:08;0.20;;;0.20;;
15925;SDS011;8062;53.882;10.642;2023-05-13T04:14:28;0.30;;;0.30;;
15925;SDS011;8062;53.882;10.642;2023-05-13T04:15:48;0.30;;;0.30;;
15925;SDS011;8062;53.882;10.642;2023-05-13T04:17:07;0.30;;;0.30;;
15925;SDS011;8062;53.882;10.642;2023-05-13T04:18:30;0.40;;;0.40;;
15925;SDS011;8062;53.882;10.642;2023-05-13T04:19:53;0.37;;;0.37;;
15925;SDS011;8062;53.882;10.642;2023-05-13T04:21:13;0.30;;;0.30;;
15925;SDS011;8062;53.882;10.642;2023-05-13T04:22:33;0.40;;;0.40;;
15925;SDS011;8062;53.882;10.642;2023-05-13T04:23:53;0.30;;;0.30;;
15925;SDS011;8062;53.882;10.642;2023-05-13T04:25:14;0.23;;;0.23;;
15925;SDS011;8062;53.882;10.642;2023-05-13T04:26:34;0.30;;;0.30;;
15925;SDS011;8062;53.882;10.642;2023-05-13T04:27:56;0.30;;;0.30;;
15925;SDS011;8062;53.882;10.642;2023-05-13T04:29:21;0.27;;;0.27;;
15925;SDS011;8062;53.882;10.642;2023-05-13T04:30:41;0.30;;;0.30;;
15925;SDS011;8062;53.882;10.642;2023-05-13T04:32:00;0.40;;;0.40;;
15925;SDS011;8062;53.882;10.642;2023-05-13T04:33:20;0.30;;;0.30;;
15925;SDS011;8062;53.882;10.642;2023-05-13T04:34:41;0.33;;;0.33;;
15925;SDS011;8062;53.882;10.642;2023-05-13T04:36:01;0.30;;;0.30;;
15925;SDS011;8062;53.882;10.642;2023-05-13T04:37:21;0.30;;;0.30;;
15925;SDS011;8062;53.882;10.642;2023-05-13T04:38:42;0.47;;;0.47;;
15925;SDS011;8062;53.882;10.642;2023-05-13T04:40:02;0.37;;;0.37;;
15925;SDS011;8062;53.882;10.642;2023-05-13T04:41:22;0.30;;;0.30;;
15925;SDS011;8062;53.882;10.642;2023-05-13T04:42:42;0.30;;;0.30;;
15925;SDS011;8062;53.882;10.642;2023-05-13T04:44:02;0.40;;;0.40;;
15925;SDS011;8062;53.882;10.642;2023-05-13T04:45:23;0.30;;;0.30;;
15925;SDS011;8062;53.882;10.642;2023-05-13T04:46:42;0.40;;;0.40;;
15925;SDS011;8062;53.882;10.642;2023-05-13T04:48:03;0.40;;;0.40;;
15925;SDS011;8062;53.882;10.642;2023-05-13T04:49:22;0.37;;;0.37;;
15925;SDS011;8062;53.882;10.642;2023-05-13T04:50:45;0.30;;;0.30;;
15925;SDS011;8062;53.882;10.642;2023-05-13T04:52:06;0.40;;;0.40;;
15925;SDS011;8062;53.882;10.642;2023-05-13T04:53:27;0.30;;;0.30;;
15925;SDS011;8062;53.882;10.642;2023-05-13T04:54:49;0.30;;;0.30;;
15925;SDS011;8062;53.882;10.642;2023-05-13T04:56:09;0.30;;;0.30;;
15925;SDS011;8062;53.882;10.642;2023-05-13T04:57:29;0.40;;;0.40;;
15925;SDS011;8062;53.882;10.642;2023-05-13T04:58:49;0.30;;;0.30;;
15925;SDS011;8062;53.882;10.642;2023-05-13T05:00:09;0.30;;;0.30;;
15925;SDS011;8062;53.882;10.642;2023-05-13T05:01:31;0.33;;;0.33;;
15925;SDS011;8062;53.882;10.642;2023-05-13T05:02:51;0.30;;;0.30;;
15925;SDS011;8062;53.882;10.642;2023-05-13T05:04:11;0.40;;;0.40;;
15925;SDS011;8062;53.882;10.642;2023-05-13T05:05:31;0.30;;;0.30;;
15925;SDS011;8062;53.882;10.642;2023-05-13T05:06:50;0.30;;;0.30;;
15925;SDS011;8062;53.882;10.642;2023-05-13T05:08:10;0.33;;;0.33;;
15925;SDS011;8062;53.882;10.642;2023-05-13T05:09:30;0.20;;;0.20;;
15925;SDS011;8062;53.882;10.642;2023-05-13T05:10:49;0.30;;;0.30;;
15925;SDS011;8062;53.882;10.642;2023-05-13T05:12:09;0.30;;;0.30;;
15925;SDS011;8062;53.882;10.642;2023-05-13T05:13:32;0.30;;;0.30;;
15925;SDS011;8062;53.882;10.642;2023-05-13T05:14:51;0.30;;;0.30;;
15925;SDS011;8062;53.882;10.642;2023-05-13T05:16:11;0.30;;;0.30;;
15925;SDS011;8062;53.882;10.642;2023-05-13T05:17:30;0.30;;;0.30;;
15925;SDS011;8062;53.882;10.642;2023-05-13T05:18:53;0.27;;;0.27;;
15925;SDS011;8062;53.882;10.642;2023-05-13T05:20:13;0.20;;;0.20;;
15925;SDS011;8062;53.882;10.642;2023-05-13T05:21:32;0.30;;;0.30;;
15925;SDS011;8062;53.882;10.642;2023-05-13T05:22:53;0.30;;;0.30;;
15925;SDS011;8062;53.882;10.642;2023-05-13T05:24:15;0.30;;;0.30;;
15925;SDS011;8062;53.882;10.642;2023-05-13T05:25:35;0.20;;;0.20;;
15925;SDS011;8062;53.882;10.642;2023-05-13T05:26:55;0.20;;;0.20;;
15925;SDS011;8062;53.882;10.642;2023-05-13T05:28:15;0.20;;;0.20;;
15925;SDS011;8062;53.882;10.642;2023-05-13T05:29:35;0.20;;;0.20;;
15925;SDS011;8062;53.882;10.642;2023-05-13T05:30:55;0.20;;;0.20;;
15925;SDS011;8062;53.882;10.642;2023-05-13T05:32:18;0.30;;;0.30;;
15925;SDS011;8062;53.882;10.642;2023-05-13T05:33:39;0.30;;;0.30;;
15925;SDS011;8062;53.882;10.642;2023-05-13T05:34:59;0.20;;;0.20;;
15925;SDS011;8062;53.882;10.642;2023-05-13T05:36:20;0.30;;;0.30;;
15925;SDS011;8062;53.882;10.642;2023-05-13T05:37:40;0.30;;;0.30;;
15925;SDS011;8062;53.882;10.642;2023-05-13T05:38:59;0.30;;;0.30;;
15925;SDS011;8062;53.882;10.642;2023-05-13T05:40:27;0.20;;;0.20;;
15925;SDS011;8062;53.882;10.642;2023-05-13T05:41:47;0.30;;;0.30;;
15925;SDS011;8062;53.882;10.642;2023-05-13T05:43:07;0.20;;;0.20;;
15925;SDS011;8062;53.882;10.642;2023-05-13T05:44:27;0.20;;;0.20;;
15925;SDS011;8062;53.882;10.642;2023-05-13T05:45:47;0.30;;;0.30;;
15925;SDS011;8062;53.882;10.642;2023-05-13T05:47:10;0.20;;;0.20;;
15925;SDS011;8062;53.882;10.642;2023-05-13T05:48:29;0.20;;;0.20;;
15925;SDS011;8062;53.882;10.642;2023-05-13T05:49:50;0.30;;;0.30;;
15925;SDS011;8062;53.882;10.642;2023-05-13T05:51:10;0.20;;;0.20;;
15925;SDS011;8062;53.882;10.642;2023-05-13T05:52:30;0.30;;;0.30;;
15925;SDS011;8062;53.882;10.642;2023-05-13T05:53:51;0.30;;;0.30;;
15925;SDS011;8062;53.882;10.642;2023-05-13T05:55:11;0.30;;;0.30;;
15925;SDS011;8062;53.882;10.642;2023-05-13T05:56:30;0.33;;;0.33;;
15925;SDS011;8062;53.882;10.642;2023-05-13T05:57:50;0.20;;;0.20;;
15925;SDS011;8062;53.882;10.642;2023-05-13T05:59:10;0.20;;;0.20;;
15925;SDS011;8062;53.882;10.642;2023-05-13T06:00:30;0.20;;;0.20;;
15925;SDS011;8062;53.882;10.642;2023-05-13T06:01:51;0.20;;;0.20;;
15925;SDS011;8062;53.882;10.642;2023-05-13T06:03:11;0.20;;;0.20;;
15925;SDS011;8062;53.882;10.642;2023-05-13T06:04:30;0.30;;;0.30;;
15925;SDS011;8062;53.882;10.642;2023-05-13T06:05:49;0.30;;;0.30;;
15925;SDS011;8062;53.882;10.642;2023-05-13T06:07:10;0.20;;;0.20;;
15925;SDS011;8062;53.882;10.642;2023-05-13T06:08:32;0.40;;;0.40;;
15925;SDS011;8062;53.882;10.642;2023-05-13T06:09:51;0.20;;;0.20;;
15925;SDS011;8062;53.882;10.642;2023-05-13T06:11:11;0.30;;;0.30;;
15925;SDS011;8062;53.882;10.642;2023-05-13T06:12:31;0.30;;;0.30;;
15925;SDS011;8062;53.882;10.642;2023-05-13T06:13:50;0.30;;;0.30;;
15925;SDS011;8062;53.882;10.642;2023-05-13T06:15:11;0.20;;;0.20;;
15925;SDS011;8062;53.882;10.642;2023-05-13T06:16:31;0.20;;;0.20;;
15925;SDS011;8062;53.882;10.642;2023-05-13T06:17:52;0.30;;;0.30;;
15925;SDS011;8062;53.882;10.642;2023-05-13T06:19:12;0.20;;;0.20;;
15925;SDS011;8062;53.882;10.642;2023-05-13T06:20:31;0.20;;;0.20;;
15925;SDS011;8062;53.882;10.642;2023-05-13T06:21:51;0.10;;;0.10;;
15925;SDS011;8062;53.882;10.642;2023-05-13T06:23:11;0.23;;;0.23;;
15925;SDS011;8062;53.882;10.642;2023-05-13T06:24:32;0.20;;;0.20;;
15925;SDS011;8062;53.882;10.642;2023-05-13T06:25:52;0.40;;;0.40;;
15925;SDS011;8062;53.882;10.642;2023-05-13T06:27:12;0.30;;;0.30;;
15925;SDS011;8062;53.882;10.642;2023-05-13T06:28:32;0.20;;;0.20;;
15925;SDS011;8062;53.882;10.642;2023-05-13T06:29:51;0.30;;;0.30;;
15925;SDS011;8062;53.882;10.642;2023-05-13T06:31:12;0.20;;;0.20;;
15925;SDS011;8062;53.882;10.642;2023-05-13T06:32:32;0.30;;;0.30;;
15925;SDS011;8062;53.882;10.642;2023-05-13T06:33:52;0.30;;;0.30;;
15925;SDS011;8062;53.882;10.642;2023-05-13T06:35:11;0.30;;;0.30;;
15925;SDS011;8062;53.882;10.642;2023-05-13T06:36:31;0.30;;;0.30;;
15925;SDS011;8062;53.882;10.642;2023-05-13T06:37:51;0.30;;;0.30;;
15925;SDS011;8062;53.882;10.642;2023-05-13T06:39:11;0.30;;;0.30;;
15925;SDS011;8062;53.882;10.642;2023-05-13T06:40:32;0.30;;;0.30;;
15925;SDS011;8062;53.882;10.642;2023-05-13T06:41:52;0.30;;;0.30;;
15925;SDS011;8062;53.882;10.642;2023-05-13T06:43:14;0.20;;;0.20;;
15925;SDS011;8062;53.882;10.642;2023-05-13T06:44:39;0.20;;;0.20;;
15925;SDS011;8062;53.882;10.642;2023-05-13T06:45:58;0.33;;;0.33;;
15925;SDS011;8062;53.882;10.642;2023-05-13T06:47:20;0.20;;;0.20;;
15925;SDS011;8062;53.882;10.642;2023-05-13T06:48:40;0.20;;;0.20;;
15925;SDS011;8062;53.882;10.642;2023-05-13T06:49:59;0.20;;;0.20;;
15925;SDS011;8062;53.882;10.642;2023-05-13T06:51:20;0.23;;;0.23;;
15925;SDS011;8062;53.882;10.642;2023-05-13T06:52:39;0.13;;;0.13;;
15925;SDS011;8062;53.882;10.642;2023-05-13T06:53:59;0.20;;;0.20;;
15925;SDS011;8062;53.882;10.642;2023-05-13T06:55:19;0.20;;;0.20;;
15925;SDS011;8062;53.882;10.642;2023-05-13T06:56:38;0.30;;;0.30;;
15925;SDS011;8062;53.882;10.642;2023-05-13T06:57:58;0.20;;;0.20;;
15925;SDS011;8062;53.882;10.642;2023-05-13T06:59:17;0.20;;;0.20;;
15925;SDS011;8062;53.882;10.642;2023-05-13T07:00:38;0.20;;;0.20;;
15925;SDS011;8062;53.882;10.642;2023-05-13T07:01:58;0.10;;;0.10;;
15925;SDS011;8062;53.882;10.642;2023-05-13T07:03:18;0.20;;;0.20;;
15925;SDS011;8062;53.882;10.642;2023-05-13T07:04:37;0.20;;;0.20;;
15925;SDS011;8062;53.882;10.642;2023-05-13T07:05:57;0.20;;;0.20;;
15925;SDS011;8062;53.882;10.642;2023-05-13T07:07:16;0.10;;;0.10;;
15925;SDS011;8062;53.882;10.642;2023-05-13T07:08:36;0.10;;;0.10;;
15925;SDS011;8062;53.882;10.642;2023-05-13T07:09:56;0.10;;;0.10;;
15925;SDS011;8062;53.882;10.642;2023-05-13T07:11:15;0.10;;;0.10;;
15925;SDS011;8062;53.882;10.642;2023-05-13T07:12:35;0.00;;;0.00;;
15925;SDS011;8062;53.882;10.642;2023-05-13T07:13:55;0.03;;;0.03;;
15925;SDS011;8062;53.882;10.642;2023-05-13T07:15:15;0.10;;;0.10;;
15925;SDS011;8062;53.882;10.642;2023-05-13T07:16:34;0.00;;;0.00;;
15925;SDS011;8062;53.882;10.642;2023-05-13T07:17:54;0.10;;;0.10;;
15925;SDS011;8062;53.882;10.642;2023-05-13T07:19:13;0.03;;;0.03;;
15925;SDS011;8062;53.882;10.642;2023-05-13T07:20:33;0.10;;;0.10;;
15925;SDS011;8062;53.882;10.642;2023-05-13T07:21:53;0.10;;;0.10;;
15925;SDS011;8062;53.882;10.642;2023-05-13T07:23:12;0.00;;;0.00;;
15925;SDS011;8062;53.882;10.642;2023-05-13T07:24:32;0.10;;;0.10;;
15925;SDS011;8062;53.882;10.642;2023-05-13T07:25:51;0.00;;;0.00;;
15925;SDS011;8062;53.882;10.642;2023-05-13T07:27:11;0.00;;;0.00;;
15925;SDS011;8062;53.882;10.642;2023-05-13T07:28:31;0.00;;;0.00;;
15925;SDS011;8062;53.882;10.642;2023-05-13T07:29:50;0.00;;;0.00;;
15925;SDS011;8062;53.882;10.642;2023-05-13T07:31:10;0.10;;;0.10;;
15925;SDS011;8062;53.882;10.642;2023-05-13T07:32:29;0.00;;;0.00;;
15925;SDS011;8062;53.882;10.642;2023-05-13T07:33:49;0.00;;;0.00;;
15925;SDS011;8062;53.882;10.642;2023-05-13T07:35:09;0.00;;;0.00;;
15925;SDS011;8062;53.882;10.642;2023-05-13T07:36:28;0.00;;;0.00;;
15925;SDS011;8062;53.882;10.642;2023-05-13T07:37:48;0.10;;;0.10;;
15925;SDS011;8062;53.882;10.642;2023-05-13T07:39:07;0.03;;;0.03;;
15925;SDS011;8062;53.882;10.642;2023-05-13T07:40:27;0.00;;;0.00;;
15925;SDS011;8062;53.882;10.642;2023-05-13T07:41:47;0.00;;;0.00;;
15925;SDS011;8062;53.882;10.642;2023-05-13T07:43:06;0.00;;;0.00;;
15925;SDS011;8062;53.882;10.642;2023-05-13T07:44:26;0.00;;;0.00;;
15925;SDS011;8062;53.882;10.642;2023-05-13T07:45:46;0.00;;;0.00;;
15925;SDS011;8062;53.882;10.642;2023-05-13T07:47:05;0.00;;;0.00;;
15925;SDS011;8062;53.882;10.642;2023-05-13T07:48:25;0.10;;;0.10;;
15925;SDS011;8062;53.882;10.642;2023-05-13T07:49:46;0.00;;;0.00;;
15925;SDS011;8062;53.882;10.642;2023-05-13T07:51:05;0.00;;;0.00;;
15925;SDS011;8062;53.882;10.642;2023-05-13T07:52:25;0.10;;;0.10;;
15925;SDS011;8062;53.882;10.642;2023-05-13T07:53:45;0.00;;;0.00;;
15925;SDS011;8062;53.882;10.642;2023-05-13T07:55:05;0.00;;;0.00;;
15925;SDS011;8062;53.882;10.642;2023-05-13T07:56:25;0.00;;;0.00;;
15925;SDS011;8062;53.882;10.642;2023-05-13T07:57:44;0.00;;;0.00;;
15925;SDS011;8062;53.882;10.642;2023-05-13T07:59:04;0.03;;;0.03;;
15925;SDS011;8062;53.882;10.642;2023-05-13T08:00:23;0.00;;;0.00;;
15925;SDS011;8062;53.882;10.642;2023-05-13T08:01:43;0.00;;;0.00;;
15925;SDS011;8062;53.882;10.642;2023-05-13T08:03:03;0.00;;;0.00;;
15925;SDS011;8062;53.882;10.642;2023-05-13T08:04:23;0.00;;;0.00;;
15925;SDS011;8062;53.882;10.642;2023-05-13T08:05:42;0.00;;;0.00;;
15925;SDS011;8062;53.882;10.642;2023-05-13T08:07:02;0.00;;;0.00;;
15925;SDS011;8062;53.882;10.642;2023-05-13T08:08:22;0.10;;;0.10;;
15925;SDS011;8062;53.882;10.642;2023-05-13T08:09:42;0.00;;;0.00;;